sensor_id;sensor_type;location;lat;lon;timestamp;P1;durP1;ratioP1;P2;durP2;ratioP2
35877;SDS011;21982;49.804;24.072;2023-02-01T00:00:57;14.45;;;5.85;;
35877;SDS011;21982;49.804;24.072;2023-02-01T00:03:23;17.38;;;5.75;;
35877;SDS011;21982;49.804;24.072;2023-02-01T00:05:58;12.48;;;6.18;;
35877;SDS011;21982;49.804;24.072;2023-02-01T00:08:24;17.00;;;5.82;;
35877;SDS011;21982;49.804;24.072;2023-02-01T00:10:57;14.73;;;6.03;;
35877;SDS011;21982;49.804;24.072;2023-02-01T00:13:30;11.68;;;4.97;;
35877;SDS011;21982;49.804;24.072;2023-02-01T00:16:30;16.50;;;6.40;;
35877;SDS011;21982;49.804;24.072;2023-02-01T00:18:51;12.35;;;4.28;;
35877;SDS011;21982;49.804;24.072;2023-02-01T00:21:21;12.57;;;5.07;;
35877;SDS011;21982;49.804;24.072;2023-02-01T00:23:47;11.50;;;5.57;;
35877;SDS011;21982;49.804;24.072;2023-02-01T00:26:17;12.73;;;5.03;;
35877;SDS011;21982;49.804;24.072;2023-02-01T00:28:45;11.88;;;4.65;;
35877;SDS011;21982;49.804;24.072;2023-02-01T00:31:11;11.25;;;4.35;;
35877;SDS011;21982;49.804;24.072;2023-02-01T00:33:37;15.57;;;6.03;;
35877;SDS011;21982;49.804;24.072;2023-02-01T00:36:03;12.63;;;5.23;;
35877;SDS011;21982;49.804;24.072;2023-02-01T00:38:30;14.57;;;5.85;;
35877;SDS011;21982;49.804;24.072;2023-02-01T00:41:03;13.50;;;5.38;;
35877;SDS011;21982;49.804;24.072;2023-02-01T00:43:33;13.27;;;5.70;;
35877;SDS011;21982;49.804;24.072;2023-02-01T00:45:59;15.80;;;5.03;;
35877;SDS011;21982;49.804;24.072;2023-02-01T00:48:25;13.77;;;4.10;;
35877;SDS011;21982;49.804;24.072;2023-02-01T00:50:51;13.20;;;5.20;;
35877;SDS011;21982;49.804;24.072;2023-02-01T00:53:17;11.30;;;4.68;;
35877;SDS011;21982;49.804;24.072;2023-02-01T00:55:45;8.52;;;3.78;;
35877;SDS011;21982;49.804;24.072;2023-02-01T00:58:14;10.43;;;4.15;;
35877;SDS011;21982;49.804;24.072;2023-02-01T01:00:39;12.00;;;4.00;;
35877;SDS011;21982;49.804;24.072;2023-02-01T01:03:06;9.80;;;4.22;;
35877;SDS011;21982;49.804;24.072;2023-02-01T01:05:45;8.75;;;3.70;;
35877;SDS011;21982;49.804;24.072;2023-02-01T01:08:14;11.35;;;3.60;;
35877;SDS011;21982;49.804;24.072;2023-02-01T01:10:41;9.30;;;3.78;;
35877;SDS011;21982;49.804;24.072;2023-02-01T01:13:08;6.57;;;2.50;;
35877;SDS011;21982;49.804;24.072;2023-02-01T01:15:37;9.75;;;3.53;;
35877;SDS011;21982;49.804;24.072;2023-02-01T01:18:04;8.05;;;3.25;;
35877;SDS011;21982;49.804;24.072;2023-02-01T01:20:30;12.07;;;3.38;;
35877;SDS011;21982;49.804;24.072;2023-02-01T01:22:55;8.27;;;3.63;;
35877;SDS011;21982;49.804;24.072;2023-02-01T01:25:20;8.23;;;3.72;;
35877;SDS011;21982;49.804;24.072;2023-02-01T01:27:46;10.33;;;4.57;;
35877;SDS011;21982;49.804;24.072;2023-02-01T01:30:12;8.68;;;4.10;;
35877;SDS011;21982;49.804;24.072;2023-02-01T01:32:38;7.85;;;3.72;;
35877;SDS011;21982;49.804;24.072;2023-02-01T01:35:03;7.78;;;3.75;;
35877;SDS011;21982;49.804;24.072;2023-02-01T01:37:29;8.03;;;3.90;;
35877;SDS011;21982;49.804;24.072;2023-02-01T01:39:54;12.43;;;5.65;;
35877;SDS011;21982;49.804;24.072;2023-02-01T01:42:20;9.53;;;4.10;;
35877;SDS011;21982;49.804;24.072;2023-02-01T01:47:20;9.32;;;4.50;;
35877;SDS011;21982;49.804;24.072;2023-02-01T01:49:46;12.40;;;5.13;;
35877;SDS011;21982;49.804;24.072;2023-02-01T01:52:12;9.68;;;4.65;;
35877;SDS011;21982;49.804;24.072;2023-02-01T01:54:38;8.63;;;5.13;;
35877;SDS011;21982;49.804;24.072;2023-02-01T01:57:09;10.07;;;4.78;;
35877;SDS011;21982;49.804;24.072;2023-02-01T01:59:38;11.90;;;5.67;;
35877;SDS011;21982;49.804;24.072;2023-02-01T02:02:07;13.33;;;5.70;;
35877;SDS011;21982;49.804;24.072;2023-02-01T02:04:33;13.10;;;5.57;;
35877;SDS011;21982;49.804;24.072;2023-02-01T02:07:01;11.07;;;6.07;;
35877;SDS011;21982;49.804;24.072;2023-02-01T02:09:29;13.82;;;5.25;;
35877;SDS011;21982;49.804;24.072;2023-02-01T02:11:54;10.25;;;4.95;;
35877;SDS011;21982;49.804;24.072;2023-02-01T02:14:20;9.35;;;4.60;;
35877;SDS011;21982;49.804;24.072;2023-02-01T02:19:30;10.47;;;4.90;;
35877;SDS011;21982;49.804;24.072;2023-02-01T02:36:29;5.85;;;2.95;;
35877;SDS011;21982;49.804;24.072;2023-02-01T02:41:44;6.55;;;3.28;;
35877;SDS011;21982;49.804;24.072;2023-02-01T02:45:01;6.87;;;3.10;;
35877;SDS011;21982;49.804;24.072;2023-02-01T02:51:01;7.07;;;2.92;;
35877;SDS011;21982;49.804;24.072;2023-02-01T02:54:15;7.97;;;2.80;;
35877;SDS011;21982;49.804;24.072;2023-02-01T02:57:05;6.20;;;2.90;;
35877;SDS011;21982;49.804;24.072;2023-02-01T02:59:52;7.40;;;2.83;;
35877;SDS011;21982;49.804;24.072;2023-02-01T03:02:37;8.60;;;2.65;;
35877;SDS011;21982;49.804;24.072;2023-02-01T03:05:22;5.25;;;2.55;;
35877;SDS011;21982;49.804;24.072;2023-02-01T03:13:22;8.60;;;2.97;;
35877;SDS011;21982;49.804;24.072;2023-02-01T03:18:42;5.82;;;2.65;;
35877;SDS011;21982;49.804;24.072;2023-02-01T03:21:23;4.60;;;2.63;;
35877;SDS011;21982;49.804;24.072;2023-02-01T03:23:53;6.50;;;2.93;;
35877;SDS011;21982;49.804;24.072;2023-02-01T03:26:23;7.77;;;3.00;;
35877;SDS011;21982;49.804;24.072;2023-02-01T03:28:54;7.47;;;3.40;;
35877;SDS011;21982;49.804;24.072;2023-02-01T03:31:21;6.93;;;3.20;;
35877;SDS011;21982;49.804;24.072;2023-02-01T03:33:47;5.77;;;3.13;;
35877;SDS011;21982;49.804;24.072;2023-02-01T03:38:57;6.35;;;3.05;;
35877;SDS011;21982;49.804;24.072;2023-02-01T03:44:11;5.88;;;2.75;;
35877;SDS011;21982;49.804;24.072;2023-02-01T03:46:52;4.85;;;2.90;;
35877;SDS011;21982;49.804;24.072;2023-02-01T03:49:49;6.80;;;3.38;;
35877;SDS011;21982;49.804;24.072;2023-02-01T03:52:18;4.50;;;2.65;;
35877;SDS011;21982;49.804;24.072;2023-02-01T03:54:50;7.45;;;2.95;;
35877;SDS011;21982;49.804;24.072;2023-02-01T03:57:18;7.13;;;3.60;;
35877;SDS011;21982;49.804;24.072;2023-02-01T03:59:51;5.80;;;2.47;;
35877;SDS011;21982;49.804;24.072;2023-02-01T04:02:17;8.57;;;3.35;;
35877;SDS011;21982;49.804;24.072;2023-02-01T04:04:42;4.83;;;3.03;;
35877;SDS011;21982;49.804;24.072;2023-02-01T04:07:07;8.17;;;3.80;;
35877;SDS011;21982;49.804;24.072;2023-02-01T04:09:33;6.63;;;2.33;;
35877;SDS011;21982;49.804;24.072;2023-02-01T04:11:58;5.28;;;2.70;;
35877;SDS011;21982;49.804;24.072;2023-02-01T04:14:24;7.78;;;3.03;;
35877;SDS011;21982;49.804;24.072;2023-02-01T04:16:49;6.22;;;2.88;;
35877;SDS011;21982;49.804;24.072;2023-02-01T04:19:14;6.32;;;2.85;;
35877;SDS011;21982;49.804;24.072;2023-02-01T04:21:40;6.78;;;2.75;;
35877;SDS011;21982;49.804;24.072;2023-02-01T04:24:05;4.73;;;2.03;;
35877;SDS011;21982;49.804;24.072;2023-02-01T04:26:31;5.93;;;2.17;;
35877;SDS011;21982;49.804;24.072;2023-02-01T04:28:56;4.65;;;2.72;;
35877;SDS011;21982;49.804;24.072;2023-02-01T04:31:22;7.33;;;2.67;;
35877;SDS011;21982;49.804;24.072;2023-02-01T04:33:53;4.60;;;2.23;;
35877;SDS011;21982;49.804;24.072;2023-02-01T04:36:22;4.95;;;2.28;;
35877;SDS011;21982;49.804;24.072;2023-02-01T04:38:48;4.53;;;2.33;;
35877;SDS011;21982;49.804;24.072;2023-02-01T04:41:14;4.95;;;2.70;;
35877;SDS011;21982;49.804;24.072;2023-02-01T04:43:43;6.63;;;2.30;;
35877;SDS011;21982;49.804;24.072;2023-02-01T04:46:09;5.97;;;2.63;;
35877;SDS011;21982;49.804;24.072;2023-02-01T04:48:34;5.00;;;2.42;;
35877;SDS011;21982;49.804;24.072;2023-02-01T04:51:00;4.50;;;2.20;;
35877;SDS011;21982;49.804;24.072;2023-02-01T04:53:25;4.13;;;2.08;;
35877;SDS011;21982;49.804;24.072;2023-02-01T04:55:51;4.85;;;2.60;;
35877;SDS011;21982;49.804;24.072;2023-02-01T04:58:16;5.00;;;2.03;;
35877;SDS011;21982;49.804;24.072;2023-02-01T05:00:42;5.03;;;2.95;;
35877;SDS011;21982;49.804;24.072;2023-02-01T05:03:07;4.80;;;2.92;;
35877;SDS011;21982;49.804;24.072;2023-02-01T05:05:32;8.48;;;3.60;;
35877;SDS011;21982;49.804;24.072;2023-02-01T05:07:58;5.60;;;3.40;;
35877;SDS011;21982;49.804;24.072;2023-02-01T05:10:23;5.65;;;3.17;;
35877;SDS011;21982;49.804;24.072;2023-02-01T05:12:49;7.45;;;3.28;;
35877;SDS011;21982;49.804;24.072;2023-02-01T05:15:33;6.13;;;3.13;;
35877;SDS011;21982;49.804;24.072;2023-02-01T05:17:58;7.60;;;3.28;;
35877;SDS011;21982;49.804;24.072;2023-02-01T05:20:23;6.22;;;2.90;;
35877;SDS011;21982;49.804;24.072;2023-02-01T05:22:49;8.07;;;3.42;;
35877;SDS011;21982;49.804;24.072;2023-02-01T05:25:14;6.45;;;3.67;;
35877;SDS011;21982;49.804;24.072;2023-02-01T05:27:40;6.82;;;4.07;;
35877;SDS011;21982;49.804;24.072;2023-02-01T05:30:06;8.57;;;4.00;;
35877;SDS011;21982;49.804;24.072;2023-02-01T05:32:32;10.50;;;4.07;;
35877;SDS011;21982;49.804;24.072;2023-02-01T05:34:58;10.07;;;4.25;;
35877;SDS011;21982;49.804;24.072;2023-02-01T05:37:23;12.23;;;4.88;;
35877;SDS011;21982;49.804;24.072;2023-02-01T05:39:48;9.85;;;5.20;;
35877;SDS011;21982;49.804;24.072;2023-02-01T05:42:14;7.65;;;4.43;;
35877;SDS011;21982;49.804;24.072;2023-02-01T05:44:40;10.40;;;4.22;;
35877;SDS011;21982;49.804;24.072;2023-02-01T05:47:05;10.90;;;4.10;;
35877;SDS011;21982;49.804;24.072;2023-02-01T05:49:31;9.52;;;4.32;;
35877;SDS011;21982;49.804;24.072;2023-02-01T05:51:56;9.53;;;4.53;;
35877;SDS011;21982;49.804;24.072;2023-02-01T05:54:22;8.20;;;3.75;;
35877;SDS011;21982;49.804;24.072;2023-02-01T05:56:47;10.13;;;4.30;;
35877;SDS011;21982;49.804;24.072;2023-02-01T05:59:12;8.60;;;3.58;;
35877;SDS011;21982;49.804;24.072;2023-02-01T06:01:38;9.70;;;4.63;;
35877;SDS011;21982;49.804;24.072;2023-02-01T06:04:03;11.50;;;3.88;;
35877;SDS011;21982;49.804;24.072;2023-02-01T06:06:28;10.98;;;4.15;;
35877;SDS011;21982;49.804;24.072;2023-02-01T06:08:54;11.07;;;5.22;;
35877;SDS011;21982;49.804;24.072;2023-02-01T06:11:19;16.70;;;8.85;;
35877;SDS011;21982;49.804;24.072;2023-02-01T06:13:45;17.05;;;6.75;;
35877;SDS011;21982;49.804;24.072;2023-02-01T06:16:10;17.60;;;8.70;;
35877;SDS011;21982;49.804;24.072;2023-02-01T06:18:35;22.52;;;8.35;;
35877;SDS011;21982;49.804;24.072;2023-02-01T06:21:01;15.77;;;7.20;;
35877;SDS011;21982;49.804;24.072;2023-02-01T06:23:29;21.25;;;6.88;;
35877;SDS011;21982;49.804;24.072;2023-02-01T06:25:59;12.13;;;5.53;;
35877;SDS011;21982;49.804;24.072;2023-02-01T06:28:29;12.50;;;5.47;;
35877;SDS011;21982;49.804;24.072;2023-02-01T06:30:55;15.40;;;7.20;;
35877;SDS011;21982;49.804;24.072;2023-02-01T06:33:23;39.10;;;19.55;;
35877;SDS011;21982;49.804;24.072;2023-02-01T06:35:49;32.13;;;14.48;;
35877;SDS011;21982;49.804;24.072;2023-02-01T06:38:22;28.13;;;13.60;;
35877;SDS011;21982;49.804;24.072;2023-02-01T06:40:51;29.65;;;9.77;;
35877;SDS011;21982;49.804;24.072;2023-02-01T06:43:18;14.48;;;7.38;;
35877;SDS011;21982;49.804;24.072;2023-02-01T06:45:44;25.48;;;9.93;;
35877;SDS011;21982;49.804;24.072;2023-02-01T06:48:09;13.00;;;6.28;;
35877;SDS011;21982;49.804;24.072;2023-02-01T06:50:34;14.95;;;6.60;;
35877;SDS011;21982;49.804;24.072;2023-02-01T06:53:00;16.05;;;5.43;;
35877;SDS011;21982;49.804;24.072;2023-02-01T06:55:26;13.38;;;5.85;;
35877;SDS011;21982;49.804;24.072;2023-02-01T06:57:54;18.52;;;8.35;;
35877;SDS011;21982;49.804;24.072;2023-02-01T07:00:21;16.50;;;7.93;;
35877;SDS011;21982;49.804;24.072;2023-02-01T07:02:47;16.55;;;7.13;;
35877;SDS011;21982;49.804;24.072;2023-02-01T07:05:12;16.30;;;6.95;;
35877;SDS011;21982;49.804;24.072;2023-02-01T07:07:37;27.67;;;8.80;;
35877;SDS011;21982;49.804;24.072;2023-02-01T11:28:13;10.50;;;4.55;;
35877;SDS011;21982;49.804;24.072;2023-02-01T11:30:41;12.90;;;5.78;;
35877;SDS011;21982;49.804;24.072;2023-02-01T11:33:13;10.88;;;5.03;;
35877;SDS011;21982;49.804;24.072;2023-02-01T11:35:41;14.48;;;4.47;;
35877;SDS011;21982;49.804;24.072;2023-02-01T11:38:19;16.90;;;5.97;;
35877;SDS011;21982;49.804;24.072;2023-02-01T11:40:47;12.00;;;5.85;;
35877;SDS011;21982;49.804;24.072;2023-02-01T11:45:57;11.15;;;4.57;;
35877;SDS011;21982;49.804;24.072;2023-02-01T11:48:24;14.73;;;4.47;;
35877;SDS011;21982;49.804;24.072;2023-02-01T11:53:42;10.55;;;5.68;;
35877;SDS011;21982;49.804;24.072;2023-02-01T12:06:47;13.20;;;7.00;;
35877;SDS011;21982;49.804;24.072;2023-02-01T12:49:46;16.50;;;5.88;;
35877;SDS011;21982;49.804;24.072;2023-02-01T12:52:24;14.00;;;4.90;;
35877;SDS011;21982;49.804;24.072;2023-02-01T12:55:22;14.48;;;5.22;;
35877;SDS011;21982;49.804;24.072;2023-02-01T12:58:04;13.93;;;7.35;;
35877;SDS011;21982;49.804;24.072;2023-02-01T13:00:49;13.75;;;5.40;;
35877;SDS011;21982;49.804;24.072;2023-02-01T13:03:42;13.00;;;4.53;;
35877;SDS011;21982;49.804;24.072;2023-02-01T13:06:28;11.95;;;5.68;;
35877;SDS011;21982;49.804;24.072;2023-02-01T13:09:04;13.48;;;5.60;;
35877;SDS011;21982;49.804;24.072;2023-02-01T13:11:53;13.50;;;4.95;;
35877;SDS011;21982;49.804;24.072;2023-02-01T13:17:05;14.10;;;4.97;;
35877;SDS011;21982;49.804;24.072;2023-02-01T13:20:42;8.73;;;4.47;;
35877;SDS011;21982;49.804;24.072;2023-02-01T13:22:47;7.75;;;3.50;;
35877;SDS011;21982;49.804;24.072;2023-02-01T13:28:12;9.75;;;3.75;;
35877;SDS011;21982;49.804;24.072;2023-02-01T13:34:03;24.15;;;6.82;;
35877;SDS011;21982;49.804;24.072;2023-02-01T13:44:57;9.82;;;3.72;;
35877;SDS011;21982;49.804;24.072;2023-02-01T13:47:38;8.95;;;3.90;;
35877;SDS011;21982;49.804;24.072;2023-02-01T13:50:13;12.98;;;5.78;;
35877;SDS011;21982;49.804;24.072;2023-02-01T13:52:55;13.80;;;4.63;;
35877;SDS011;21982;49.804;24.072;2023-02-01T13:55:24;9.90;;;3.83;;
35877;SDS011;21982;49.804;24.072;2023-02-01T13:58:04;12.65;;;5.13;;
35877;SDS011;21982;49.804;24.072;2023-02-01T14:10:53;8.75;;;3.58;;
35877;SDS011;21982;49.804;24.072;2023-02-01T14:24:02;11.85;;;3.97;;
35877;SDS011;21982;49.804;24.072;2023-02-01T14:31:52;13.82;;;5.00;;
35877;SDS011;21982;49.804;24.072;2023-02-01T14:34:24;11.43;;;3.30;;
35877;SDS011;21982;49.804;24.072;2023-02-01T14:36:54;10.15;;;4.10;;
35877;SDS011;21982;49.804;24.072;2023-02-01T14:39:29;15.15;;;5.68;;
35877;SDS011;21982;49.804;24.072;2023-02-01T14:41:59;8.50;;;3.00;;
35877;SDS011;21982;49.804;24.072;2023-02-01T14:44:30;12.18;;;4.53;;
35877;SDS011;21982;49.804;24.072;2023-02-01T14:49:55;9.60;;;3.60;;
35877;SDS011;21982;49.804;24.072;2023-02-01T14:52:40;12.38;;;4.45;;
35877;SDS011;21982;49.804;24.072;2023-02-01T14:55:42;10.13;;;4.88;;
35877;SDS011;21982;49.804;24.072;2023-02-01T15:00:58;10.43;;;3.80;;
35877;SDS011;21982;49.804;24.072;2023-02-01T15:03:34;21.35;;;4.47;;
35877;SDS011;21982;49.804;24.072;2023-02-01T15:06:00;11.05;;;4.07;;
35877;SDS011;21982;49.804;24.072;2023-02-01T15:08:27;12.30;;;3.53;;
35877;SDS011;21982;49.804;24.072;2023-02-01T15:10:55;9.70;;;3.88;;
35877;SDS011;21982;49.804;24.072;2023-02-01T15:13:27;8.93;;;3.75;;
35877;SDS011;21982;49.804;24.072;2023-02-01T15:15:59;16.13;;;5.72;;
35877;SDS011;21982;49.804;24.072;2023-02-01T15:18:35;10.73;;;4.47;;
35877;SDS011;21982;49.804;24.072;2023-02-01T15:21:02;11.68;;;4.70;;
35877;SDS011;21982;49.804;24.072;2023-02-01T15:23:28;10.73;;;4.80;;
35877;SDS011;21982;49.804;24.072;2023-02-01T15:25:54;7.72;;;3.88;;
35877;SDS011;21982;49.804;24.072;2023-02-01T15:28:20;10.65;;;4.00;;
35877;SDS011;21982;49.804;24.072;2023-02-01T15:30:56;14.25;;;4.93;;
35877;SDS011;21982;49.804;24.072;2023-02-01T15:33:24;11.15;;;4.25;;
35877;SDS011;21982;49.804;24.072;2023-02-01T15:35:54;12.45;;;4.18;;
35877;SDS011;21982;49.804;24.072;2023-02-01T15:38:33;8.02;;;3.67;;
35877;SDS011;21982;49.804;24.072;2023-02-01T15:41:02;11.40;;;4.95;;
35877;SDS011;21982;49.804;24.072;2023-02-01T15:46:30;9.77;;;4.75;;
35877;SDS011;21982;49.804;24.072;2023-02-01T15:48:58;13.50;;;5.00;;
35877;SDS011;21982;49.804;24.072;2023-02-01T15:51:25;11.07;;;4.20;;
35877;SDS011;21982;49.804;24.072;2023-02-01T15:56:33;11.73;;;3.58;;
35877;SDS011;21982;49.804;24.072;2023-02-01T15:59:01;9.32;;;3.83;;
35877;SDS011;21982;49.804;24.072;2023-02-01T16:01:28;11.20;;;4.32;;
35877;SDS011;21982;49.804;24.072;2023-02-01T16:06:56;11.80;;;5.07;;
35877;SDS011;21982;49.804;24.072;2023-02-01T16:09:40;10.48;;;4.03;;
35877;SDS011;21982;49.804;24.072;2023-02-01T16:12:29;9.80;;;3.65;;
35877;SDS011;21982;49.804;24.072;2023-02-01T16:14:56;9.10;;;4.45;;
35877;SDS011;21982;49.804;24.072;2023-02-01T16:17:22;15.13;;;5.03;;
35877;SDS011;21982;49.804;24.072;2023-02-01T16:19:47;12.50;;;3.67;;
35877;SDS011;21982;49.804;24.072;2023-02-01T16:22:13;12.75;;;3.72;;
35877;SDS011;21982;49.804;24.072;2023-02-01T16:24:39;9.10;;;4.25;;
35877;SDS011;21982;49.804;24.072;2023-02-01T16:27:05;7.70;;;3.55;;
35877;SDS011;21982;49.804;24.072;2023-02-01T16:29:32;8.23;;;3.55;;
35877;SDS011;21982;49.804;24.072;2023-02-01T16:31:58;11.15;;;4.03;;
35877;SDS011;21982;49.804;24.072;2023-02-01T16:34:23;7.95;;;3.67;;
35877;SDS011;21982;49.804;24.072;2023-02-01T16:36:49;14.07;;;4.38;;
35877;SDS011;21982;49.804;24.072;2023-02-01T16:39:21;10.55;;;3.88;;
35877;SDS011;21982;49.804;24.072;2023-02-01T16:41:47;9.13;;;4.38;;
35877;SDS011;21982;49.804;24.072;2023-02-01T16:44:13;10.65;;;4.65;;
35877;SDS011;21982;49.804;24.072;2023-02-01T16:46:39;8.80;;;3.50;;
35877;SDS011;21982;49.804;24.072;2023-02-01T16:49:08;10.07;;;3.97;;
35877;SDS011;21982;49.804;24.072;2023-02-01T16:51:44;10.70;;;5.00;;
35877;SDS011;21982;49.804;24.072;2023-02-01T16:54:10;11.93;;;4.35;;
35877;SDS011;21982;49.804;24.072;2023-02-01T16:56:35;14.05;;;4.72;;
35877;SDS011;21982;49.804;24.072;2023-02-01T16:59:01;12.60;;;4.45;;
35877;SDS011;21982;49.804;24.072;2023-02-01T17:01:27;7.38;;;3.60;;
35877;SDS011;21982;49.804;24.072;2023-02-01T17:03:53;11.80;;;4.57;;
35877;SDS011;21982;49.804;24.072;2023-02-01T17:06:20;13.60;;;4.65;;
35877;SDS011;21982;49.804;24.072;2023-02-01T17:08:49;10.80;;;4.03;;
35877;SDS011;21982;49.804;24.072;2023-02-01T17:11:17;9.40;;;4.13;;
35877;SDS011;21982;49.804;24.072;2023-02-01T17:13:43;8.30;;;3.30;;
35877;SDS011;21982;49.804;24.072;2023-02-01T17:16:31;7.72;;;3.40;;
35877;SDS011;21982;49.804;24.072;2023-02-01T17:19:04;7.75;;;3.95;;
35877;SDS011;21982;49.804;24.072;2023-02-01T17:21:37;9.90;;;4.20;;
35877;SDS011;21982;49.804;24.072;2023-02-01T17:24:06;8.55;;;4.32;;
35877;SDS011;21982;49.804;24.072;2023-02-01T17:26:35;11.98;;;5.03;;
35877;SDS011;21982;49.804;24.072;2023-02-01T17:29:00;10.80;;;4.22;;
35877;SDS011;21982;49.804;24.072;2023-02-01T17:31:26;8.32;;;4.47;;
35877;SDS011;21982;49.804;24.072;2023-02-01T17:33:52;9.57;;;4.10;;
35877;SDS011;21982;49.804;24.072;2023-02-01T17:36:18;7.78;;;3.72;;
35877;SDS011;21982;49.804;24.072;2023-02-01T17:38:43;22.23;;;5.15;;
35877;SDS011;21982;49.804;24.072;2023-02-01T17:41:09;10.85;;;4.25;;
35877;SDS011;21982;49.804;24.072;2023-02-01T17:43:36;9.23;;;4.15;;
35877;SDS011;21982;49.804;24.072;2023-02-01T17:46:15;10.90;;;4.53;;
35877;SDS011;21982;49.804;24.072;2023-02-01T17:48:42;9.60;;;4.07;;
35877;SDS011;21982;49.804;24.072;2023-02-01T17:51:15;8.98;;;3.85;;
35877;SDS011;21982;49.804;24.072;2023-02-01T17:53:42;11.18;;;4.60;;
35877;SDS011;21982;49.804;24.072;2023-02-01T17:56:13;13.00;;;5.80;;
35877;SDS011;21982;49.804;24.072;2023-02-01T17:58:42;10.07;;;3.28;;
35877;SDS011;21982;49.804;24.072;2023-02-01T18:01:10;6.38;;;3.35;;
35877;SDS011;21982;49.804;24.072;2023-02-01T18:03:37;10.43;;;3.92;;
35877;SDS011;21982;49.804;24.072;2023-02-01T18:06:03;9.35;;;4.15;;
35877;SDS011;21982;49.804;24.072;2023-02-01T18:08:30;10.43;;;3.85;;
35877;SDS011;21982;49.804;24.072;2023-02-01T18:10:59;10.90;;;4.32;;
35877;SDS011;21982;49.804;24.072;2023-02-01T18:13:29;8.90;;;4.88;;
35877;SDS011;21982;49.804;24.072;2023-02-01T18:15:55;10.32;;;4.00;;
35877;SDS011;21982;49.804;24.072;2023-02-01T18:18:26;13.65;;;3.67;;
35877;SDS011;21982;49.804;24.072;2023-02-01T18:20:54;8.35;;;3.53;;
35877;SDS011;21982;49.804;24.072;2023-02-01T18:23:21;7.55;;;3.72;;
35877;SDS011;21982;49.804;24.072;2023-02-01T18:25:47;10.40;;;3.92;;
35877;SDS011;21982;49.804;24.072;2023-02-01T18:28:15;11.15;;;4.93;;
35877;SDS011;21982;49.804;24.072;2023-02-01T18:30:41;10.35;;;4.22;;
35877;SDS011;21982;49.804;24.072;2023-02-01T18:33:12;9.15;;;4.07;;
35877;SDS011;21982;49.804;24.072;2023-02-01T18:35:38;16.73;;;5.70;;
35877;SDS011;21982;49.804;24.072;2023-02-01T18:38:04;10.70;;;4.63;;
35877;SDS011;21982;49.804;24.072;2023-02-01T18:40:31;12.30;;;4.65;;
35877;SDS011;21982;49.804;24.072;2023-02-01T18:42:59;8.18;;;4.80;;
35877;SDS011;21982;49.804;24.072;2023-02-01T18:45:35;10.68;;;3.72;;
35877;SDS011;21982;49.804;24.072;2023-02-01T18:48:02;8.63;;;4.05;;
35877;SDS011;21982;49.804;24.072;2023-02-01T18:50:29;7.43;;;4.00;;
35877;SDS011;21982;49.804;24.072;2023-02-01T18:52:56;8.50;;;3.95;;
35877;SDS011;21982;49.804;24.072;2023-02-01T18:55:23;10.05;;;4.32;;
35877;SDS011;21982;49.804;24.072;2023-02-01T18:57:51;8.27;;;4.32;;
35877;SDS011;21982;49.804;24.072;2023-02-01T19:00:17;9.40;;;4.47;;
35877;SDS011;21982;49.804;24.072;2023-02-01T22:52:28;19.53;;;8.73;;
35877;SDS011;21982;49.804;24.072;2023-02-01T22:54:54;17.17;;;7.33;;
35877;SDS011;21982;49.804;24.072;2023-02-01T22:57:20;16.60;;;7.90;;
35877;SDS011;21982;49.804;24.072;2023-02-01T22:59:45;14.20;;;9.23;;
35877;SDS011;21982;49.804;24.072;2023-02-01T23:02:11;18.92;;;8.15;;
35877;SDS011;21982;49.804;24.072;2023-02-01T23:04:37;14.00;;;7.53;;
35877;SDS011;21982;49.804;24.072;2023-02-01T23:07:02;14.63;;;8.57;;
35877;SDS011;21982;49.804;24.072;2023-02-01T23:09:27;15.15;;;7.88;;
35877;SDS011;21982;49.804;24.072;2023-02-01T23:11:53;13.70;;;8.23;;
35877;SDS011;21982;49.804;24.072;2023-02-01T23:14:19;13.57;;;7.18;;
35877;SDS011;21982;49.804;24.072;2023-02-01T23:16:45;12.80;;;7.38;;
35877;SDS011;21982;49.804;24.072;2023-02-01T23:19:12;12.80;;;6.93;;
35877;SDS011;21982;49.804;24.072;2023-02-01T23:21:38;14.90;;;7.35;;
35877;SDS011;21982;49.804;24.072;2023-02-01T23:24:04;11.43;;;7.07;;
35877;SDS011;21982;49.804;24.072;2023-02-01T23:26:31;14.02;;;6.75;;
35877;SDS011;21982;49.804;24.072;2023-02-01T23:28:58;13.07;;;6.93;;
35877;SDS011;21982;49.804;24.072;2023-02-01T23:31:30;14.38;;;7.50;;
35877;SDS011;21982;49.804;24.072;2023-02-01T23:33:57;14.45;;;6.70;;
35877;SDS011;21982;49.804;24.072;2023-02-01T23:36:24;15.25;;;6.38;;
35877;SDS011;21982;49.804;24.072;2023-02-01T23:38:50;14.35;;;6.40;;
35877;SDS011;21982;49.804;24.072;2023-02-01T23:41:16;17.38;;;7.45;;
35877;SDS011;21982;49.804;24.072;2023-02-01T23:43:44;11.40;;;6.43;;
35877;SDS011;21982;49.804;24.072;2023-02-01T23:46:25;15.98;;;8.38;;
35877;SDS011;21982;49.804;24.072;2023-02-01T23:48:55;14.10;;;7.55;;
35877;SDS011;21982;49.804;24.072;2023-02-01T23:51:21;11.02;;;6.22;;
35877;SDS011;21982;49.804;24.072;2023-02-01T23:53:47;12.65;;;6.35;;
35877;SDS011;21982;49.804;24.072;2023-02-01T23:56:24;13.32;;;6.40;;
35877;SDS011;21982;49.804;24.072;2023-02-01T23:58:57;12.07;;;6.20;;
